createdAt,value
2024-03-10T00:00:27.093Z,55.00
2024-03-10T00:03:15.314Z,53.00
2024-03-10T00:05:43.340Z,49.50
2024-03-10T00:08:11.302Z,47.00
2024-03-10T00:10:42.615Z,44.50
2024-03-10T00:13:11.149Z,49.00
2024-03-10T00:15:39.123Z,49.00
2024-03-10T00:18:09.661Z,49.00
2024-03-10T00:20:37.792Z,49.00
2024-03-10T00:23:07.253Z,48.00
2024-03-10T00:25:36.362Z,39.67
2024-03-10T00:28:04.988Z,53.00
2024-03-10T00:30:34.783Z,52.00
2024-03-10T00:33:02.818Z,52.00
2024-03-10T00:35:30.984Z,54.00
2024-03-10T00:37:59.100Z,50.50
2024-03-10T00:40:27.770Z,43.00
2024-03-10T00:42:55.647Z,54.00
2024-03-10T00:45:26.384Z,42.33
2024-03-10T00:47:56.190Z,57.00
2024-03-10T00:50:24.226Z,44.00
2024-03-10T00:52:52.569Z,52.00
2024-03-10T00:55:20.589Z,53.00
2024-03-10T00:57:48.810Z,48.00
2024-03-10T01:00:17.038Z,51.50
2024-03-10T01:05:17.426Z,47.50
2024-03-10T01:07:45.417Z,53.00
2024-03-10T01:10:13.432Z,44.50
2024-03-10T01:12:41.520Z,45.00
2024-03-10T01:15:09.780Z,41.00
2024-03-10T01:17:38.921Z,51.00
2024-03-10T01:20:08.078Z,49.00
2024-03-10T01:22:36.233Z,46.00
2024-03-10T01:25:05.915Z,48.00
2024-03-10T01:30:02.287Z,37.50
2024-03-10T01:32:31.166Z,44.50
2024-03-10T01:34:59.220Z,47.50
2024-03-10T01:37:27.295Z,42.00
2024-03-10T01:39:55.276Z,51.00
2024-03-10T01:42:23.180Z,50.00
2024-03-10T01:44:51.274Z,41.00
2024-03-10T01:47:19.277Z,43.50
2024-03-10T01:49:47.666Z,50.00
2024-03-10T01:52:15.758Z,48.00
2024-03-10T01:54:44.526Z,54.00
2024-03-10T01:57:12.643Z,40.00
2024-03-10T01:59:40.757Z,47.00
2024-03-10T02:02:08.946Z,43.50
2024-03-10T02:04:39.188Z,44.00
2024-03-10T02:07:07.582Z,36.00
2024-03-10T02:09:37.210Z,45.00
2024-03-10T02:12:07.106Z,39.00
2024-03-10T02:14:35.308Z,49.50
2024-03-10T02:17:03.504Z,37.00
2024-03-10T02:19:31.598Z,41.00
2024-03-10T02:21:59.629Z,40.00
2024-03-10T02:24:38.153Z,46.00
2024-03-10T02:27:07.092Z,40.00
2024-03-10T02:29:51.199Z,44.50
2024-03-10T02:32:38.138Z,38.00
2024-03-10T02:35:26.154Z,47.00
2024-03-10T02:38:12.886Z,43.00
2024-03-10T02:40:59.667Z,48.50
2024-03-10T02:43:46.095Z,52.00
2024-03-10T02:46:32.834Z,47.00
2024-03-10T02:49:00.844Z,41.50
2024-03-10T02:51:28.767Z,45.50
2024-03-10T02:53:56.758Z,43.00
2024-03-10T02:56:25.053Z,44.50
2024-03-10T02:58:53.034Z,42.00
2024-03-10T03:01:22.775Z,41.50
2024-03-10T03:03:53.197Z,41.00
2024-03-10T03:06:23.886Z,33.00
2024-03-10T03:08:51.942Z,40.00
2024-03-10T03:11:19.980Z,34.00
2024-03-10T03:13:49.076Z,43.00
2024-03-10T03:16:17.049Z,44.50
2024-03-10T03:18:46.482Z,35.00
2024-03-10T03:21:14.890Z,46.50
2024-03-10T03:23:42.892Z,48.00
2024-03-10T03:26:10.773Z,35.00
2024-03-10T03:28:38.887Z,37.00
2024-03-10T03:31:07.012Z,34.00
2024-03-10T03:33:34.931Z,40.50
2024-03-10T03:36:03.613Z,39.00
2024-03-10T03:38:31.862Z,38.00
2024-03-10T03:40:59.884Z,47.00
2024-03-10T03:43:27.805Z,41.50
2024-03-10T03:45:55.731Z,39.00
2024-03-10T03:48:23.703Z,37.00
2024-03-10T03:50:51.929Z,39.00
2024-03-10T03:53:20.011Z,31.50
2024-03-10T03:55:48.204Z,30.00
2024-03-10T03:58:16.292Z,39.00
2024-03-10T04:00:44.427Z,39.00
2024-03-10T04:03:12.385Z,41.00
2024-03-10T04:05:42.220Z,36.00
2024-03-10T04:08:12.935Z,29.50
2024-03-10T04:10:41.145Z,35.00
2024-03-10T04:13:09.156Z,28.00
2024-03-10T04:15:37.157Z,30.00
2024-03-10T04:18:06.337Z,31.50
2024-03-10T04:20:36.385Z,41.00
2024-03-10T04:23:06.820Z,37.00
2024-03-10T04:25:35.668Z,37.00
2024-03-10T04:28:03.986Z,31.00
2024-03-10T04:30:32.595Z,32.00
2024-03-10T04:33:00.659Z,31.00
2024-03-10T04:35:29.749Z,30.00
2024-03-10T04:37:57.960Z,37.00
2024-03-10T04:40:25.822Z,33.00
2024-03-10T04:42:53.694Z,26.50
2024-03-10T04:45:22.216Z,30.00
2024-03-10T04:47:50.136Z,30.50
2024-03-10T04:50:20.145Z,28.00
2024-03-10T04:52:48.210Z,32.00
2024-03-10T04:55:16.705Z,36.00
2024-03-10T04:57:44.606Z,34.00
2024-03-10T05:00:17.290Z,34.50
2024-03-10T05:02:46.406Z,28.50
2024-03-10T05:05:17.275Z,30.00
2024-03-10T05:07:52.426Z,34.00
2024-03-10T05:10:20.918Z,31.00
2024-03-10T05:12:49.057Z,28.00
2024-03-10T05:15:17.035Z,31.50
2024-03-10T05:17:45.034Z,33.00
2024-03-10T05:20:16.334Z,35.00
2024-03-10T05:22:45.087Z,24.00
2024-03-10T05:25:13.143Z,24.00
2024-03-10T05:27:42.940Z,27.00
2024-03-10T05:30:11.466Z,28.00
2024-03-10T05:32:39.548Z,25.50
2024-03-10T05:37:37.464Z,25.00
2024-03-10T05:40:08.767Z,31.00
2024-03-10T05:42:36.641Z,27.00
2024-03-10T05:45:05.709Z,27.50
2024-03-10T05:47:34.361Z,27.00
2024-03-10T05:50:03.622Z,28.00
2024-03-10T05:52:31.671Z,35.00
2024-03-10T05:54:59.738Z,26.00
2024-03-10T05:57:31.197Z,40.00
2024-03-10T05:59:59.607Z,36.00
2024-03-10T06:02:27.742Z,27.00
2024-03-10T06:04:56.254Z,27.00
2024-03-10T06:07:24.167Z,23.00
2024-03-10T06:09:52.159Z,24.00
2024-03-10T06:12:20.123Z,33.00
2024-03-10T06:14:48.025Z,30.50
2024-03-10T06:17:15.973Z,30.00
2024-03-10T06:20:02.673Z,24.00
2024-03-10T06:22:49.783Z,30.00
2024-03-10T06:25:24.345Z,25.00
2024-03-10T06:27:53.220Z,25.00
2024-03-10T06:30:21.454Z,27.50
2024-03-10T06:32:51.552Z,32.00
2024-03-10T06:35:20.655Z,15.50
2024-03-10T06:37:49.821Z,25.00
2024-03-10T06:40:18.044Z,31.00
2024-03-10T06:42:48.939Z,25.00
2024-03-10T06:45:16.850Z,30.50
2024-03-10T06:47:45.006Z,31.00
2024-03-10T06:50:14.585Z,29.50
2024-03-10T06:52:46.574Z,30.00
2024-03-10T06:55:16.219Z,25.00
2024-03-10T06:57:44.186Z,26.00
2024-03-10T07:00:14.294Z,26.00
2024-03-10T07:02:47.129Z,27.50
2024-03-10T07:05:16.731Z,30.50
2024-03-10T07:07:44.957Z,26.00
2024-03-10T07:10:14.844Z,28.00
2024-03-10T07:12:43.154Z,24.33
2024-03-10T07:15:11.442Z,26.00
2024-03-10T07:17:41.410Z,27.50
2024-03-10T07:20:11.359Z,28.00
2024-03-10T07:22:39.640Z,21.00
2024-03-10T07:25:09.516Z,24.00
2024-03-10T07:27:37.709Z,23.00
2024-03-10T07:30:06.289Z,26.00
2024-03-10T07:32:34.467Z,21.00
2024-03-10T07:35:03.814Z,23.00
2024-03-10T07:37:31.967Z,23.00
2024-03-10T07:39:59.863Z,24.00
2024-03-10T07:42:27.819Z,24.00
2024-03-10T07:44:56.895Z,22.50
2024-03-10T07:47:24.851Z,23.00
2024-03-10T07:49:52.957Z,21.50
2024-03-10T07:52:20.886Z,17.00
2024-03-10T07:54:48.780Z,21.00
2024-03-10T07:57:16.792Z,23.50
2024-03-10T07:59:44.659Z,18.50
2024-03-10T08:02:16.563Z,26.00
2024-03-10T08:04:46.492Z,20.00
2024-03-10T08:07:14.374Z,20.00
2024-03-10T08:09:42.554Z,20.00
2024-03-10T08:12:12.428Z,16.00
2024-03-10T08:14:41.060Z,15.00
2024-03-10T08:17:09.318Z,16.50
2024-03-10T08:19:37.980Z,21.00
2024-03-10T08:22:07.273Z,16.50
2024-03-10T08:24:35.278Z,15.00
2024-03-10T08:27:03.420Z,19.50
2024-03-10T08:29:31.548Z,16.50
2024-03-10T08:31:59.574Z,17.00
2024-03-10T08:34:29.113Z,15.50
2024-03-10T08:36:57.086Z,17.00
2024-03-10T08:39:26.186Z,15.00
2024-03-10T08:41:54.084Z,11.50
2024-03-10T08:44:23.765Z,10.00
2024-03-10T08:46:51.910Z,12.00
2024-03-10T08:49:19.947Z,16.50
2024-03-10T08:51:48.082Z,14.00
2024-03-10T08:54:16.694Z,17.00
2024-03-10T08:56:45.108Z,15.00
2024-03-10T08:59:17.360Z,15.50
2024-03-10T09:01:45.338Z,15.00
2024-03-10T09:04:13.273Z,16.50
2024-03-10T09:06:42.103Z,17.00
2024-03-10T09:09:10.112Z,19.00
2024-03-10T09:11:38.225Z,15.00
2024-03-10T09:14:09.159Z,14.00
2024-03-10T09:16:37.153Z,16.00
2024-03-10T09:19:09.084Z,15.00
2024-03-10T09:21:38.048Z,17.00
2024-03-10T09:24:06.233Z,14.00
2024-03-10T09:26:34.373Z,14.00
2024-03-10T09:29:02.488Z,15.50
2024-03-10T09:31:31.960Z,13.00
2024-03-10T09:34:01.056Z,14.00
2024-03-10T09:36:29.854Z,14.00
2024-03-10T09:38:59.017Z,15.50
2024-03-10T09:41:32.739Z,15.00
2024-03-10T09:44:02.143Z,15.00
2024-03-10T09:46:31.674Z,11.50
2024-03-10T09:49:03.145Z,17.00
2024-03-10T09:51:35.193Z,15.50
2024-03-10T09:54:03.972Z,14.00
2024-03-10T09:56:32.169Z,15.00
2024-03-10T09:59:07.110Z,14.00
2024-03-10T10:01:37.180Z,16.00
2024-03-10T10:04:09.061Z,16.00
2024-03-10T10:06:40.624Z,15.00
2024-03-10T10:09:12.032Z,20.00
2024-03-10T10:11:40.523Z,15.00
2024-03-10T10:14:17.069Z,17.00
2024-03-10T10:17:00.392Z,12.50
2024-03-10T10:19:30.988Z,15.00
2024-03-10T10:21:59.808Z,18.50
2024-03-10T10:24:28.343Z,10.00
2024-03-10T10:27:06.038Z,17.50
2024-03-10T10:29:50.628Z,15.00
2024-03-10T10:32:23.755Z,13.00
2024-03-10T10:34:53.647Z,11.50
2024-03-10T10:37:22.411Z,12.00
2024-03-10T10:39:50.521Z,9.00
2024-03-10T10:42:29.744Z,12.00
2024-03-10T10:45:03.033Z,8.00
2024-03-10T10:47:35.337Z,11.00
2024-03-10T10:50:15.844Z,8.50
2024-03-10T10:52:44.892Z,10.00
2024-03-10T10:55:13.573Z,9.00
2024-03-10T10:57:45.885Z,11.50
2024-03-10T11:00:30.467Z,9.00
2024-03-10T11:03:18.884Z,12.33
2024-03-10T11:06:03.375Z,10.50
2024-03-10T11:08:38.512Z,14.50
2024-03-10T11:11:07.153Z,10.00
2024-03-10T11:13:39.499Z,9.00
2024-03-10T11:16:13.051Z,10.00
2024-03-10T11:18:43.243Z,10.00
2024-03-10T11:21:21.692Z,10.00
2024-03-10T11:23:52.811Z,11.00
2024-03-10T11:26:25.539Z,11.33
2024-03-10T11:28:58.054Z,11.00
2024-03-10T11:31:28.692Z,13.00
2024-03-10T11:33:58.105Z,13.00
2024-03-10T11:36:33.906Z,12.50
2024-03-10T11:39:25.490Z,10.00
2024-03-10T11:41:53.524Z,10.00
2024-03-10T11:44:24.317Z,11.50
2024-03-10T11:46:53.219Z,12.00
2024-03-10T11:49:21.281Z,11.00
2024-03-10T11:51:50.891Z,9.00
2024-03-10T11:54:20.332Z,8.50
2024-03-10T11:56:52.654Z,10.00
2024-03-10T11:59:21.151Z,10.00
2024-03-10T12:01:49.352Z,9.00
2024-03-10T12:04:18.438Z,7.00
2024-03-10T12:06:47.810Z,10.00
2024-03-10T12:09:22.002Z,7.00
2024-03-10T12:11:51.520Z,13.00
2024-03-10T12:14:20.783Z,10.00
2024-03-10T12:16:51.996Z,13.00
2024-03-10T12:19:21.823Z,14.00
2024-03-10T12:21:50.498Z,15.00
2024-03-10T12:24:19.491Z,13.00
2024-03-10T12:26:47.614Z,9.00
2024-03-10T12:29:21.481Z,14.00
2024-03-10T12:31:51.423Z,19.00
2024-03-10T12:34:20.624Z,18.50
2024-03-10T12:36:49.706Z,13.00
2024-03-10T12:39:17.987Z,17.00
2024-03-10T12:41:46.507Z,18.50
2024-03-10T12:44:15.057Z,16.00
2024-03-10T12:46:43.718Z,17.00
2024-03-10T12:49:11.867Z,13.00
2024-03-10T12:51:40.885Z,16.00
2024-03-10T12:54:09.152Z,17.00
2024-03-10T12:56:37.417Z,17.00
2024-03-10T12:59:05.845Z,17.00
2024-03-10T13:01:35.352Z,19.00
2024-03-10T13:04:03.486Z,15.50
2024-03-10T13:06:31.869Z,13.00
2024-03-10T13:09:00.488Z,14.00
2024-03-10T13:11:32.053Z,16.00
2024-03-10T13:14:00.911Z,19.00
2024-03-10T13:16:28.949Z,18.50
2024-03-10T13:18:59.715Z,17.00
2024-03-10T13:21:28.388Z,15.00
2024-03-10T13:23:56.386Z,15.00
2024-03-10T13:26:24.338Z,16.00
2024-03-10T13:28:52.663Z,14.00
2024-03-10T13:31:20.973Z,17.00
2024-03-10T13:33:50.587Z,11.50
2024-03-10T13:36:18.857Z,11.50
2024-03-10T13:38:49.056Z,9.00
2024-03-10T13:41:17.444Z,10.00
2024-03-10T13:43:46.146Z,11.50
2024-03-10T13:46:15.795Z,8.00
2024-03-10T13:48:43.850Z,11.00
2024-03-10T13:51:12.100Z,12.00
2024-03-10T13:53:40.166Z,10.00
2024-03-10T13:56:08.258Z,10.50
2024-03-10T13:58:38.050Z,12.00
2024-03-10T14:01:07.064Z,12.00
2024-03-10T14:03:36.887Z,10.00
2024-03-10T14:06:04.975Z,12.50
2024-03-10T14:08:33.436Z,12.00
2024-03-10T14:11:01.492Z,11.00
2024-03-10T14:13:30.280Z,12.50
2024-03-10T14:15:58.857Z,13.50
2024-03-10T14:18:30.286Z,10.00
2024-03-10T14:20:58.488Z,11.50
2024-03-10T14:23:26.504Z,12.00
2024-03-10T14:25:54.925Z,11.00
2024-03-10T14:28:23.116Z,10.00
2024-03-10T14:30:51.177Z,11.50
2024-03-10T14:35:48.101Z,13.00
2024-03-10T14:38:16.210Z,9.00
2024-03-10T14:40:44.267Z,11.33
2024-03-10T14:43:13.602Z,9.50
2024-03-10T14:48:10.038Z,11.00
2024-03-10T14:50:39.103Z,11.00
2024-03-10T14:53:07.427Z,10.00
2024-03-10T14:55:36.035Z,12.00
2024-03-10T14:58:05.913Z,12.00
2024-03-10T15:00:35.844Z,11.50
2024-03-10T15:03:09.509Z,13.00
2024-03-10T15:05:41.263Z,11.00
2024-03-10T15:08:12.887Z,15.50
2024-03-10T15:10:43.004Z,10.00
2024-03-10T15:13:11.328Z,12.00
2024-03-10T15:15:40.355Z,12.00
2024-03-10T15:18:14.450Z,12.50
2024-03-10T15:20:48.395Z,13.00
2024-03-10T15:23:18.709Z,10.00
2024-03-10T15:25:48.749Z,9.50
2024-03-10T15:28:17.442Z,15.00
2024-03-10T15:30:45.646Z,7.00
2024-03-10T15:33:15.424Z,13.00
2024-03-10T15:35:43.564Z,15.00
2024-03-10T15:38:15.327Z,15.00
2024-03-10T15:40:44.413Z,14.00
2024-03-10T15:43:14.462Z,13.00
2024-03-10T15:45:43.961Z,11.50
2024-03-10T15:48:12.867Z,11.00
2024-03-10T15:50:41.293Z,15.00
2024-03-10T15:53:11.757Z,11.00
2024-03-10T15:55:40.468Z,12.00
2024-03-10T15:58:09.201Z,14.00
2024-03-10T16:00:38.253Z,12.00
2024-03-10T16:03:16.353Z,14.50
2024-03-10T16:05:48.879Z,15.00
2024-03-10T16:08:20.490Z,14.00
2024-03-10T16:10:50.458Z,12.00
2024-03-10T16:13:27.079Z,13.00
2024-03-10T16:15:55.704Z,15.00
2024-03-10T16:18:29.204Z,19.00
2024-03-10T16:21:00.250Z,17.67
2024-03-10T16:23:29.359Z,13.00
2024-03-10T16:25:57.700Z,10.00
2024-03-10T16:28:26.524Z,13.00
2024-03-10T16:30:54.528Z,14.50
2024-03-10T16:33:22.499Z,20.00
2024-03-10T16:35:50.612Z,15.00
2024-03-10T16:38:19.320Z,16.00
2024-03-10T16:40:47.897Z,16.50
2024-03-10T16:43:18.055Z,14.00
2024-03-10T16:45:49.491Z,17.00
2024-03-10T16:48:18.365Z,17.00
2024-03-10T16:50:47.363Z,14.00
2024-03-10T16:53:16.562Z,9.00
2024-03-10T16:55:48.437Z,14.00
2024-03-10T16:58:20.733Z,13.00
2024-03-10T17:00:50.211Z,17.50
2024-03-10T17:03:18.458Z,19.00
2024-03-10T17:05:46.511Z,21.00
2024-03-10T17:08:17.120Z,23.00
2024-03-10T17:10:48.513Z,20.00
2024-03-10T17:13:19.118Z,16.00
2024-03-10T17:15:48.152Z,22.00
2024-03-10T17:18:17.148Z,20.00
2024-03-10T17:20:45.462Z,17.67
2024-03-10T17:23:14.330Z,24.00
2024-03-10T17:25:42.689Z,17.00
2024-03-10T17:28:10.779Z,20.00
2024-03-10T17:30:38.894Z,19.50
2024-03-10T17:33:07.211Z,20.00
2024-03-10T17:35:35.667Z,18.50
2024-03-10T17:38:05.715Z,21.00
2024-03-10T17:40:33.879Z,21.00
2024-03-10T17:43:01.917Z,22.50
2024-03-10T17:45:29.916Z,22.50
2024-03-10T17:47:58.144Z,21.00
2024-03-10T17:50:26.449Z,20.00
2024-03-10T17:52:54.540Z,17.00
2024-03-10T17:55:22.713Z,24.00
2024-03-10T17:57:51.266Z,24.00
2024-03-10T18:00:23.872Z,21.00
2024-03-10T18:02:52.235Z,19.00
2024-03-10T18:05:23.790Z,20.50
2024-03-10T18:07:53.317Z,23.00
2024-03-10T18:10:22.764Z,18.00
2024-03-10T18:12:52.725Z,22.67
2024-03-10T18:15:22.006Z,24.00
2024-03-10T18:17:50.380Z,17.00
2024-03-10T18:20:21.262Z,23.00
2024-03-10T18:22:49.801Z,25.00
2024-03-10T18:25:18.101Z,16.00
2024-03-10T18:27:46.135Z,23.00
2024-03-10T18:30:15.692Z,19.00
2024-03-10T18:32:44.358Z,21.50
2024-03-10T18:35:13.576Z,28.00
2024-03-10T18:37:42.153Z,28.00
2024-03-10T18:40:13.816Z,22.50
2024-03-10T18:42:42.147Z,21.00
2024-03-10T18:45:10.774Z,24.00
2024-03-10T18:47:38.959Z,25.00
2024-03-10T18:50:11.734Z,19.00
2024-03-10T18:52:43.940Z,25.00
2024-03-10T18:55:14.428Z,20.00
2024-03-10T18:57:42.704Z,24.50
2024-03-10T19:00:13.640Z,22.00
2024-03-10T19:02:42.939Z,25.00
2024-03-10T19:05:13.194Z,29.00
2024-03-10T19:07:42.368Z,24.00
2024-03-10T19:10:11.630Z,19.00
2024-03-10T19:12:41.572Z,21.50
2024-03-10T19:15:10.088Z,22.00
2024-03-10T19:17:40.295Z,26.00
2024-03-10T19:20:15.260Z,27.50
2024-03-10T19:22:51.892Z,29.50
2024-03-10T19:25:20.102Z,25.50
2024-03-10T19:27:49.265Z,27.00
2024-03-10T19:30:19.308Z,28.00
2024-03-10T19:32:48.545Z,30.00
2024-03-10T19:35:18.076Z,36.00
2024-03-10T19:37:47.095Z,21.67
2024-03-10T19:40:23.989Z,27.50
2024-03-10T19:42:54.644Z,22.67
2024-03-10T19:45:23.573Z,21.00
2024-03-10T19:47:51.772Z,27.00
2024-03-10T19:50:21.359Z,28.50
2024-03-10T19:52:51.061Z,36.50
2024-03-10T19:55:19.552Z,28.00
2024-03-10T19:57:47.969Z,29.50
2024-03-10T20:00:16.880Z,30.00
2024-03-10T20:02:47.057Z,24.00
2024-03-10T20:05:16.236Z,32.00
2024-03-10T20:07:50.277Z,26.00
2024-03-10T20:10:21.687Z,26.00
2024-03-10T20:12:51.509Z,35.00
2024-03-10T20:15:19.872Z,28.00
2024-03-10T20:17:50.579Z,29.50
2024-03-10T20:20:27.035Z,28.50
2024-03-10T20:25:26.140Z,28.00
2024-03-10T20:27:58.907Z,28.50
2024-03-10T20:30:31.315Z,27.00
2024-03-10T20:33:00.050Z,25.00
2024-03-10T20:35:28.340Z,25.00
2024-03-10T20:37:56.918Z,24.00
2024-03-10T20:40:25.099Z,25.00
2024-03-10T20:42:53.092Z,29.00
2024-03-10T20:45:21.111Z,26.33
2024-03-10T20:47:50.247Z,28.00
2024-03-10T20:50:24.728Z,28.00
2024-03-10T20:52:54.272Z,21.00
2024-03-10T20:55:22.823Z,29.00
2024-03-10T20:57:51.237Z,30.00
2024-03-10T21:00:20.932Z,27.00
2024-03-10T21:02:50.332Z,33.00
2024-03-10T21:05:18.836Z,26.00
2024-03-10T21:07:46.912Z,27.00
2024-03-10T21:10:16.770Z,26.00
2024-03-10T21:12:47.267Z,28.50
2024-03-10T21:15:18.877Z,28.00
2024-03-10T21:17:47.014Z,25.50
2024-03-10T21:20:15.618Z,27.00
2024-03-10T21:22:43.629Z,28.50
2024-03-10T21:25:11.493Z,26.00
2024-03-10T21:27:40.829Z,21.50
2024-03-10T21:30:08.954Z,30.50
2024-03-10T21:32:37.213Z,27.50
2024-03-10T21:35:08.566Z,21.50
2024-03-10T21:37:38.853Z,28.50
2024-03-10T21:40:11.825Z,22.50
2024-03-10T21:42:40.945Z,28.00
2024-03-10T21:45:09.878Z,24.00
2024-03-10T21:47:41.780Z,30.00
2024-03-10T21:50:15.951Z,24.00
2024-03-10T21:52:45.801Z,29.00
2024-03-10T21:55:14.287Z,28.50
2024-03-10T21:57:42.708Z,22.00
2024-03-10T22:00:18.257Z,25.50
2024-03-10T22:02:49.497Z,29.00
2024-03-10T22:05:18.962Z,23.00
2024-03-10T22:07:47.346Z,26.50
2024-03-10T22:10:17.281Z,27.00
2024-03-10T22:12:46.694Z,24.50
2024-03-10T22:15:16.308Z,28.50
2024-03-10T22:17:53.739Z,25.00
2024-03-10T22:20:27.739Z,26.00
2024-03-10T22:22:56.957Z,29.33
2024-03-10T22:25:27.045Z,26.50
2024-03-10T22:27:55.897Z,23.00
2024-03-10T22:30:31.213Z,23.00
2024-03-10T22:32:59.972Z,25.50
2024-03-10T22:35:28.393Z,20.00
2024-03-10T22:37:59.708Z,21.50
2024-03-10T22:40:32.685Z,24.50
2024-03-10T22:43:00.877Z,24.50
2024-03-10T22:45:31.846Z,20.00
2024-03-10T22:48:05.952Z,21.00
2024-03-10T22:50:36.421Z,24.00
2024-03-10T22:53:07.571Z,23.00
2024-03-10T22:55:36.106Z,28.00
2024-03-10T22:58:05.783Z,25.50
2024-03-10T23:00:38.680Z,19.00
2024-03-10T23:03:08.666Z,18.00
2024-03-10T23:05:37.732Z,23.50
2024-03-10T23:08:06.813Z,23.00
2024-03-10T23:10:43.479Z,25.00
2024-03-10T23:13:11.774Z,27.00
2024-03-10T23:15:40.951Z,23.00
2024-03-10T23:18:09.429Z,25.50
2024-03-10T23:20:37.616Z,22.00
2024-03-10T23:23:05.905Z,24.50
2024-03-10T23:25:33.967Z,22.50
2024-03-10T23:28:03.112Z,26.00
2024-03-10T23:30:31.073Z,27.00
2024-03-10T23:35:27.461Z,18.00
2024-03-10T23:37:55.424Z,28.00
2024-03-10T23:40:26.503Z,22.00
2024-03-10T23:42:56.903Z,18.00
2024-03-10T23:45:24.865Z,24.00
2024-03-10T23:47:53.083Z,23.50
2024-03-10T23:50:24.920Z,19.00
2024-03-10T23:52:54.657Z,19.50
2024-03-10T23:55:36.087Z,28.00
2024-03-10T23:58:04.217Z,25.00
